Time;durP1;ratioP1;P1;durP2;ratioP2;P2;SDS_P1;SDS_P2;PMS_P1;PMS_P2;Temp;Humidity;BMP_temperature;BMP_pressure;BME280_temperature;BME280_humidity;BME280_pressure;Samples;Min_cycle;Max_cycle;Signal;HPM_P1;HPM_P2
2022/01/11 00:00:14;;;;;;;10.57;4.80;;;;;;;;;;7388652;19;20014;-68
2022/01/11 00:02:43;;;;;;;11.35;5.38;;;;;;;;;;7386899;19;20033;-68
2022/01/11 00:05:18;;;;;;;10.98;5.35;;;;;;;;;;7388453;19;20002;-69
2022/01/11 00:07:44;;;;;;;10.98;4.65;;;;;;;;;;7386631;19;20017;-69
2022/01/11 00:10:13;;;;;;;8.48;5.20;;;;;;;;;;7387733;19;20002;-68
2022/01/11 00:12:38;;;;;;;10.18;4.82;;;;;;;;;;7388910;19;20330;-68
2022/01/11 00:15:04;;;;;;;8.85;5.05;;;;;;;;;;7388333;19;20010;-68
2022/01/11 00:17:29;;;;;;;7.05;4.20;;;;;;;;;;7386538;19;20412;-68
2022/01/11 00:19:55;;;;;;;13.43;5.75;;;;;;;;;;7384154;19;20335;-69
2022/01/11 00:22:26;;;;;;;11.25;4.70;;;;;;;;;;7388372;19;20110;-69
2022/01/11 00:24:52;;;;;;;7.18;4.45;;;;;;;;;;7387722;19;20017;-68
2022/01/11 00:27:18;;;;;;;11.25;5.22;;;;;;;;;;7386964;19;20011;-69
2022/01/11 00:29:47;;;;;;;9.88;5.03;;;;;;;;;;7385301;19;20006;-69
2022/01/11 00:32:16;;;;;;;11.02;4.93;;;;;;;;;;7386807;19;20134;-68
2022/01/11 00:34:50;;;;;;;9.18;4.45;;;;;;;;;;7387185;19;20378;-68
2022/01/11 00:37:16;;;;;;;9.90;5.07;;;;;;;;;;7388529;19;20060;-68
2022/01/11 00:39:42;;;;;;;10.57;4.75;;;;;;;;;;7384744;19;20535;-68
2022/01/11 00:42:09;;;;;;;8.82;5.18;;;;;;;;;;7387411;19;20003;-68
2022/01/11 00:44:34;;;;;;;11.27;4.82;;;;;;;;;;7385983;19;20019;-68
2022/01/11 00:47:00;;;;;;;10.40;5.05;;;;;;;;;;7385311;19;20006;-69
2022/01/11 00:49:25;;;;;;;8.00;4.57;;;;;;;;;;7385477;19;20018;-69
2022/01/11 00:51:50;;;;;;;9.35;4.88;;;;;;;;;;7387654;19;20017;-68
2022/01/11 00:54:16;;;;;;;10.13;4.57;;;;;;;;;;7387987;19;20007;-69
2022/01/11 00:56:41;;;;;;;10.73;5.25;;;;;;;;;;7388029;19;20374;-69
2022/01/11 00:59:06;;;;;;;10.85;5.55;;;;;;;;;;7384090;19;19999;-68
2022/01/11 01:01:37;;;;;;;9.52;4.75;;;;;;;;;;7386982;19;20069;-69
2022/01/11 01:04:03;;;;;;;7.63;4.95;;;;;;;;;;7386748;19;20004;-69
2022/01/11 01:06:28;;;;;;;6.65;4.30;;;;;;;;;;7386330;19;20444;-69
2022/01/11 01:08:53;;;;;;;8.70;4.88;;;;;;;;;;7384886;19;20452;-69
2022/01/11 01:11:19;;;;;;;8.95;4.72;;;;;;;;;;7385434;19;20018;-69
2022/01/11 01:13:44;;;;;;;9.20;4.47;;;;;;;;;;7384988;19;19998;-69
2022/01/11 01:16:09;;;;;;;9.65;4.47;;;;;;;;;;7385495;19;20306;-69
2022/01/11 01:18:36;;;;;;;9.10;4.82;;;;;;;;;;7385209;19;20010;-69
2022/01/11 01:21:02;;;;;;;9.13;4.65;;;;;;;;;;7385865;19;20011;-69
2022/01/11 01:23:28;;;;;;;10.23;4.82;;;;;;;;;;7384831;19;20492;-69
2022/01/11 01:25:54;;;;;;;6.50;4.32;;;;;;;;;;7385885;19;20010;-69
2022/01/11 01:28:19;;;;;;;9.85;4.85;;;;;;;;;;7384485;19;20095;-69
2022/01/11 01:30:46;;;;;;;12.50;5.30;;;;;;;;;;7387863;19;20003;-68
2022/01/11 01:33:12;;;;;;;9.23;4.20;;;;;;;;;;7385790;19;20082;-69
2022/01/11 01:35:39;;;;;;;11.77;4.93;;;;;;;;;;7383995;19;20010;-69
2022/01/11 01:38:09;;;;;;;11.82;5.38;;;;;;;;;;7385444;19;20122;-69
2022/01/11 01:40:40;;;;;;;10.02;4.70;;;;;;;;;;7387029;19;20006;-69
2022/01/11 01:43:08;;;;;;;10.35;5.20;;;;;;;;;;7387034;19;20465;-69
2022/01/11 01:45:34;;;;;;;9.32;4.60;;;;;;;;;;7385554;19;20006;-69
2022/01/11 01:48:00;;;;;;;8.52;4.68;;;;;;;;;;7384843;19;20475;-69
2022/01/11 01:50:26;;;;;;;10.73;5.45;;;;;;;;;;7382929;19;20006;-69
2022/01/11 01:52:53;;;;;;;11.25;5.85;;;;;;;;;;7386392;19;20457;-69
2022/01/11 01:55:19;;;;;;;10.50;5.00;;;;;;;;;;7384915;19;20476;-68
2022/01/11 01:57:44;;;;;;;8.30;4.32;;;;;;;;;;7384398;19;20559;-68
2022/01/11 02:00:12;;;;;;;10.15;5.00;;;;;;;;;;7382356;19;20028;-69
2022/01/11 02:02:40;;;;;;;8.02;4.65;;;;;;;;;;7384346;19;20006;-69
2022/01/11 02:05:06;;;;;;;8.30;4.50;;;;;;;;;;7384629;19;20018;-69
2022/01/11 02:07:35;;;;;;;9.52;4.30;;;;;;;;;;7382451;19;20030;-68
2022/01/11 02:10:03;;;;;;;9.57;4.40;;;;;;;;;;7383132;19;20437;-68
2022/01/11 02:12:29;;;;;;;9.05;4.40;;;;;;;;;;7382701;19;20488;-69
2022/01/11 02:14:54;;;;;;;7.07;3.88;;;;;;;;;;7385514;19;20027;-69
2022/01/11 02:17:19;;;;;;;9.35;4.10;;;;;;;;;;7384155;19;20007;-69
2022/01/11 02:19:45;;;;;;;8.63;4.25;;;;;;;;;;7383657;19;20014;-68
2022/01/11 02:22:10;;;;;;;6.80;3.75;;;;;;;;;;7383996;19;20415;-69
2022/01/11 02:24:36;;;;;;;9.05;4.30;;;;;;;;;;7384367;19;20010;-68
2022/01/11 02:27:01;;;;;;;8.70;4.07;;;;;;;;;;7383630;19;20006;-69
2022/01/11 02:29:29;;;;;;;7.28;4.10;;;;;;;;;;7380785;19;20013;-69
2022/01/11 02:31:55;;;;;;;7.30;3.42;;;;;;;;;;7380541;19;20017;-69
2022/01/11 02:34:20;;;;;;;5.68;3.42;;;;;;;;;;7384179;19;20006;-68
2022/01/11 02:36:45;;;;;;;6.28;3.92;;;;;;;;;;7384284;19;20006;-68
2022/01/11 02:39:11;;;;;;;7.03;3.78;;;;;;;;;;7379408;19;20002;-69
2022/01/11 02:41:48;;;;;;;7.85;4.53;;;;;;;;;;7383988;19;20034;-68
2022/01/11 02:44:13;;;;;;;7.25;4.60;;;;;;;;;;7383765;19;20384;-69
2022/01/11 02:46:39;;;;;;;7.97;4.53;;;;;;;;;;7382131;19;20030;-69
2022/01/11 02:49:04;;;;;;;7.57;4.22;;;;;;;;;;7380723;19;20421;-69
2022/01/11 02:51:29;;;;;;;8.73;4.45;;;;;;;;;;7384065;19;20011;-69
2022/01/11 02:53:55;;;;;;;7.68;4.10;;;;;;;;;;7385044;19;20066;-68
2022/01/11 02:56:21;;;;;;;9.38;4.78;;;;;;;;;;7383485;19;20010;-69
2022/01/11 02:58:46;;;;;;;6.35;4.10;;;;;;;;;;7380450;19;20398;-69
2022/01/11 03:01:14;;;;;;;10.45;4.80;;;;;;;;;;7380074;19;20436;-69
2022/01/11 03:03:39;;;;;;;8.02;4.95;;;;;;;;;;7380976;19;20019;-69
2022/01/11 03:06:05;;;;;;;9.38;4.57;;;;;;;;;;7376576;19;20003;-69
2022/01/11 03:08:33;;;;;;;6.93;3.65;;;;;;;;;;7383054;19;20011;-69
2022/01/11 03:10:59;;;;;;;8.77;3.67;;;;;;;;;;7380557;19;20376;-69
2022/01/11 03:13:25;;;;;;;10.70;5.28;;;;;;;;;;7384584;19;20006;-68
2022/01/11 03:15:53;;;;;;;9.45;5.13;;;;;;;;;;7384595;19;20011;-68
2022/01/11 03:18:19;;;;;;;6.88;3.90;;;;;;;;;;7381038;19;20406;-69
2022/01/11 03:20:47;;;;;;;8.70;4.50;;;;;;;;;;7383247;19;20014;-68
2022/01/11 03:23:14;;;;;;;10.50;4.85;;;;;;;;;;7383918;19;20361;-69
2022/01/11 03:25:40;;;;;;;8.80;5.18;;;;;;;;;;7381378;19;20015;-69
2022/01/11 03:28:05;;;;;;;7.18;4.57;;;;;;;;;;7381539;19;20013;-69
2022/01/11 03:30:31;;;;;;;9.77;5.00;;;;;;;;;;7379805;19;20326;-69
2022/01/11 03:32:56;;;;;;;9.75;5.07;;;;;;;;;;7382045;19;20033;-69
2022/01/11 03:35:23;;;;;;;7.32;4.30;;;;;;;;;;7380056;19;20395;-68
2022/01/11 03:37:49;;;;;;;11.07;4.75;;;;;;;;;;7382188;19;20531;-69
2022/01/11 03:40:18;;;;;;;12.38;5.45;;;;;;;;;;7381970;19;20018;-69
2022/01/11 03:42:45;;;;;;;9.05;4.57;;;;;;;;;;7384517;19;20390;-68
2022/01/11 03:45:12;;;;;;;10.05;5.07;;;;;;;;;;7388104;19;20018;-68
2022/01/11 03:47:37;;;;;;;10.23;5.15;;;;;;;;;;7384973;19;20594;-69
2022/01/11 03:50:04;;;;;;;8.35;4.60;;;;;;;;;;7385045;19;20006;-68
2022/01/11 03:52:30;;;;;;;7.30;3.95;;;;;;;;;;7388953;19;20014;-68
2022/01/11 03:57:25;;;;;;;8.48;4.15;;;;;;;;;;7387934;19;20503;-69
2022/01/11 03:59:51;;;;;;;8.20;4.45;;;;;;;;;;7385317;19;20013;-68
2022/01/11 04:02:18;;;;;;;9.98;5.20;;;;;;;;;;7386026;19;20001;-68
2022/01/11 04:04:52;;;;;;;8.93;4.38;;;;;;;;;;7386892;19;20017;-69
2022/01/11 04:07:18;;;;;;;8.57;5.18;;;;;;;;;;7385531;19;20536;-69
2022/01/11 04:09:43;;;;;;;9.13;4.57;;;;;;;;;;7384751;19;20010;-69
2022/01/11 04:12:09;;;;;;;8.73;4.45;;;;;;;;;;7387607;19;20429;-69
2022/01/11 04:14:34;;;;;;;12.65;5.20;;;;;;;;;;7387335;19;20011;-69
2022/01/11 04:17:00;;;;;;;9.60;4.90;;;;;;;;;;7384394;19;20006;-69
2022/01/11 04:19:25;;;;;;;9.70;5.03;;;;;;;;;;7384631;19;20006;-69
2022/01/11 04:21:50;;;;;;;7.63;3.78;;;;;;;;;;7386978;19;20552;-68
2022/01/11 04:24:15;;;;;;;10.57;5.22;;;;;;;;;;7385450;19;20034;-68
2022/01/11 04:26:41;;;;;;;11.75;5.38;;;;;;;;;;7380902;19;20034;-69
2022/01/11 04:29:07;;;;;;;12.82;4.35;;;;;;;;;;7384936;19;20477;-69
2022/01/11 04:31:33;;;;;;;10.90;4.80;;;;;;;;;;7387213;19;20040;-69
2022/01/11 04:33:58;;;;;;;8.60;4.35;;;;;;;;;;7387247;19;20331;-69
2022/01/11 04:36:23;;;;;;;10.48;4.63;;;;;;;;;;7386564;19;20028;-69
2022/01/11 04:38:49;;;;;;;9.02;5.10;;;;;;;;;;7383322;19;20007;-69
2022/01/11 04:41:15;;;;;;;6.78;4.03;;;;;;;;;;7384628;19;20010;-69
2022/01/11 04:43:40;;;;;;;8.32;4.50;;;;;;;;;;7385804;19;20006;-69
2022/01/11 04:46:06;;;;;;;11.68;4.55;;;;;;;;;;7384697;19;20006;-69
2022/01/11 04:48:32;;;;;;;10.60;5.20;;;;;;;;;;7383600;19;20020;-69
2022/01/11 04:51:03;;;;;;;7.30;3.92;;;;;;;;;;7384762;19;20458;-69
2022/01/11 04:53:30;;;;;;;7.88;4.65;;;;;;;;;;7381760;19;20002;-68
2022/01/11 04:55:56;;;;;;;10.20;4.85;;;;;;;;;;7381986;19;20034;-68
2022/01/11 04:58:21;;;;;;;10.15;4.97;;;;;;;;;;7380902;19;20061;-68
2022/01/11 05:00:47;;;;;;;9.25;5.00;;;;;;;;;;7382486;19;20003;-68
2022/01/11 05:03:12;;;;;;;11.35;4.18;;;;;;;;;;7386431;19;20380;-69
2022/01/11 05:05:38;;;;;;;9.85;4.50;;;;;;;;;;7385674;19;20041;-68
2022/01/11 05:08:05;;;;;;;10.20;3.78;;;;;;;;;;7384268;19;20010;-69
2022/01/11 05:10:31;;;;;;;9.52;5.50;;;;;;;;;;7385697;19;20072;-68
2022/01/11 05:12:56;;;;;;;9.73;4.43;;;;;;;;;;7384935;19;20122;-69
2022/01/11 05:15:25;;;;;;;9.95;5.57;;;;;;;;;;7384724;19;20185;-68
2022/01/11 05:17:51;;;;;;;11.20;4.93;;;;;;;;;;7384645;19;20116;-69
2022/01/11 05:20:17;;;;;;;6.60;3.85;;;;;;;;;;7382665;19;20031;-68
2022/01/11 05:22:44;;;;;;;9.52;4.13;;;;;;;;;;7383526;19;20017;-68
2022/01/11 05:25:12;;;;;;;8.27;4.45;;;;;;;;;;7384809;19;20021;-69
2022/01/11 05:27:37;;;;;;;8.70;4.43;;;;;;;;;;7381328;19;20528;-69
2022/01/11 05:30:04;;;;;;;10.40;4.80;;;;;;;;;;7381668;19;20042;-69
2022/01/11 05:32:29;;;;;;;8.90;4.93;;;;;;;;;;7374075;19;20006;-69
2022/01/11 05:34:55;;;;;;;10.77;4.93;;;;;;;;;;7382103;19;20508;-69
2022/01/11 05:37:20;;;;;;;9.48;4.25;;;;;;;;;;7380456;19;20433;-69
2022/01/11 05:39:45;;;;;;;11.50;6.15;;;;;;;;;;7380922;19;20021;-69
2022/01/11 05:42:11;;;;;;;9.95;5.70;;;;;;;;;;7381017;19;20013;-69
2022/01/11 05:44:37;;;;;;;8.90;4.47;;;;;;;;;;7382096;19;20014;-69
2022/01/11 05:47:03;;;;;;;9.02;4.60;;;;;;;;;;7377483;19;20002;-69
2022/01/11 05:49:29;;;;;;;9.57;5.10;;;;;;;;;;7380502;19;20018;-69
2022/01/11 05:51:54;;;;;;;10.75;5.30;;;;;;;;;;7380496;19;20013;-69
2022/01/11 05:54:19;;;;;;;10.00;5.30;;;;;;;;;;7381797;19;20006;-69
2022/01/11 05:56:44;;;;;;;5.03;3.45;;;;;;;;;;7380963;19;20121;-69
2022/01/11 05:59:10;;;;;;;6.82;4.43;;;;;;;;;;7381392;19;20028;-69
2022/01/11 06:01:35;;;;;;;11.15;5.28;;;;;;;;;;7380463;19;20010;-69
2022/01/11 06:04:01;;;;;;;9.07;4.60;;;;;;;;;;7381424;19;20147;-69
2022/01/11 06:06:26;;;;;;;8.73;4.47;;;;;;;;;;7379941;19;20007;-69
2022/01/11 06:08:51;;;;;;;9.02;5.35;;;;;;;;;;7379394;19;20018;-69
2022/01/11 06:11:17;;;;;;;9.45;5.18;;;;;;;;;;7380497;19;20040;-69
2022/01/11 06:13:42;;;;;;;7.70;4.13;;;;;;;;;;7380893;19;20379;-70
2022/01/11 06:16:08;;;;;;;8.63;4.30;;;;;;;;;;7378587;19;20502;-69
2022/01/11 06:18:34;;;;;;;6.82;4.15;;;;;;;;;;7378537;19;20590;-69
2022/01/11 06:20:59;;;;;;;8.70;5.05;;;;;;;;;;7380704;19;19999;-69
2022/01/11 06:23:25;;;;;;;8.02;4.80;;;;;;;;;;7380552;19;20453;-69
2022/01/11 06:25:50;;;;;;;9.88;5.10;;;;;;;;;;7380740;19;20414;-69
2022/01/11 06:28:15;;;;;;;8.45;4.38;;;;;;;;;;7380140;19;20006;-69
2022/01/11 06:30:41;;;;;;;8.80;5.03;;;;;;;;;;7381353;19;20014;-69
2022/01/11 06:33:06;;;;;;;8.80;4.80;;;;;;;;;;7378392;19;20432;-69
2022/01/11 06:35:31;;;;;;;8.20;4.75;;;;;;;;;;7380810;19;20010;-68
2022/01/11 06:37:57;;;;;;;6.65;4.28;;;;;;;;;;7378341;19;20023;-69
2022/01/11 06:40:22;;;;;;;9.75;4.20;;;;;;;;;;7379176;19;20106;-69
2022/01/11 06:42:53;;;;;;;8.05;3.97;;;;;;;;;;7378083;19;20006;-69
2022/01/11 06:45:20;;;;;;;8.88;4.30;;;;;;;;;;7380205;19;20018;-69
2022/01/11 06:47:46;;;;;;;7.70;4.50;;;;;;;;;;7377732;19;20006;-69
2022/01/11 06:50:11;;;;;;;10.90;4.57;;;;;;;;;;7378839;19;20021;-68
2022/01/11 06:52:37;;;;;;;9.10;4.22;;;;;;;;;;7378455;19;20010;-69
2022/01/11 06:55:04;;;;;;;6.60;3.80;;;;;;;;;;7379354;19;20134;-69
2022/01/11 06:57:29;;;;;;;8.77;4.07;;;;;;;;;;7377423;19;20831;-69
2022/01/11 06:59:55;;;;;;;8.52;4.05;;;;;;;;;;7377071;19;20111;-69
2022/01/11 07:02:20;;;;;;;4.68;3.13;;;;;;;;;;7378420;19;20435;-69
2022/01/11 07:04:45;;;;;;;6.78;3.47;;;;;;;;;;7377878;19;20099;-69
2022/01/11 07:07:10;;;;;;;7.82;3.38;;;;;;;;;;7374941;19;20015;-69
2022/01/11 07:09:36;;;;;;;6.63;3.55;;;;;;;;;;7378225;19;20014;-69
2022/01/11 07:12:03;;;;;;;7.45;3.55;;;;;;;;;;7376309;19;20019;-69
2022/01/11 07:14:28;;;;;;;5.47;3.20;;;;;;;;;;7377985;19;20011;-69
2022/01/11 07:16:53;;;;;;;6.43;3.53;;;;;;;;;;7377300;19;20062;-69
2022/01/11 07:19:19;;;;;;;7.20;3.53;;;;;;;;;;7383959;19;20014;-69
2022/01/11 07:21:45;;;;;;;3.85;2.22;;;;;;;;;;7386579;19;20003;-69
2022/01/11 07:24:12;;;;;;;6.28;3.38;;;;;;;;;;7388642;19;20014;-69
2022/01/11 07:26:37;;;;;;;7.13;2.92;;;;;;;;;;7380307;19;20026;-69
2022/01/11 07:29:05;;;;;;;5.30;3.08;;;;;;;;;;7379091;19;20135;-69
2022/01/11 07:31:36;;;;;;;7.85;3.45;;;;;;;;;;7382910;19;20014;-69
2022/01/11 07:34:03;;;;;;;6.47;3.35;;;;;;;;;;7385164;19;20036;-69
2022/01/11 07:36:28;;;;;;;4.40;2.88;;;;;;;;;;7385097;19;20022;-69
2022/01/11 07:38:53;;;;;;;5.90;3.28;;;;;;;;;;7381773;19;20010;-69
2022/01/11 07:41:19;;;;;;;5.85;3.03;;;;;;;;;;7386780;19;20006;-69
2022/01/11 07:43:44;;;;;;;6.25;3.20;;;;;;;;;;7383909;19;20138;-69
2022/01/11 07:46:09;;;;;;;4.53;2.80;;;;;;;;;;7383151;19;20003;-69
2022/01/11 07:48:35;;;;;;;8.95;3.55;;;;;;;;;;7380342;19;20038;-69
2022/01/11 07:51:00;;;;;;;7.50;3.22;;;;;;;;;;7384799;19;20452;-69
2022/01/11 07:53:25;;;;;;;8.30;4.20;;;;;;;;;;7384173;19;20007;-69
2022/01/11 07:55:51;;;;;;;6.47;3.97;;;;;;;;;;7380344;19;20427;-70
2022/01/11 07:58:16;;;;;;;6.88;3.38;;;;;;;;;;7378537;19;20015;-69
2022/01/11 08:00:42;;;;;;;7.78;3.35;;;;;;;;;;7382648;19;20074;-69
2022/01/11 08:03:08;;;;;;;6.68;3.78;;;;;;;;;;7382913;19;20015;-69
2022/01/11 08:05:33;;;;;;;6.05;3.83;;;;;;;;;;7382890;19;20007;-69
2022/01/11 08:07:59;;;;;;;7.68;4.03;;;;;;;;;;7383393;19;20078;-69
2022/01/11 08:10:24;;;;;;;7.15;4.28;;;;;;;;;;7384061;19;20006;-69
2022/01/11 08:12:49;;;;;;;6.60;4.05;;;;;;;;;;7383404;19;20396;-69
2022/01/11 08:15:15;;;;;;;7.55;3.88;;;;;;;;;;7384249;19;20006;-69
2022/01/11 08:17:40;;;;;;;4.43;2.90;;;;;;;;;;7382104;19;20107;-69
2022/01/11 08:20:07;;;;;;;6.03;2.88;;;;;;;;;;7378612;19;20007;-69
2022/01/11 08:22:32;;;;;;;7.20;3.85;;;;;;;;;;7383332;19;20014;-70
2022/01/11 08:24:57;;;;;;;11.77;6.45;;;;;;;;;;7380929;19;20416;-70
2022/01/11 08:27:23;;;;;;;9.93;5.05;;;;;;;;;;7376208;19;20006;-69
2022/01/11 08:29:50;;;;;;;10.40;5.50;;;;;;;;;;7373384;19;20045;-69
2022/01/11 08:32:15;;;;;;;11.07;4.53;;;;;;;;;;7381291;19;20373;-69
2022/01/11 08:34:41;;;;;;;10.57;4.65;;;;;;;;;;7380378;19;20002;-69
2022/01/11 08:37:08;;;;;;;9.68;4.57;;;;;;;;;;7383150;19;20003;-69
2022/01/11 08:39:34;;;;;;;8.48;4.22;;;;;;;;;;7378021;19;20101;-69
2022/01/11 08:42:00;;;;;;;6.63;3.80;;;;;;;;;;7379207;19;20829;-69
2022/01/11 08:44:25;;;;;;;8.60;4.70;;;;;;;;;;7383402;19;20030;-69
2022/01/11 08:46:51;;;;;;;8.77;4.22;;;;;;;;;;7378948;19;20114;-69
2022/01/11 08:49:17;;;;;;;5.88;3.80;;;;;;;;;;7372648;19;20010;-69
2022/01/11 08:51:42;;;;;;;6.47;3.60;;;;;;;;;;7370769;19;20459;-69
2022/01/11 08:54:09;;;;;;;6.90;3.53;;;;;;;;;;7380800;19;20007;-69
2022/01/11 08:56:34;;;;;;;7.60;3.80;;;;;;;;;;7380687;19;20006;-69
2022/01/11 08:59:00;;;;;;;7.57;3.90;;;;;;;;;;7380781;19;20021;-69
2022/01/11 09:01:26;;;;;;;7.43;3.83;;;;;;;;;;7377255;19;20365;-69
2022/01/11 09:03:52;;;;;;;8.00;4.22;;;;;;;;;;7379579;19;20504;-69
2022/01/11 09:06:18;;;;;;;7.32;4.18;;;;;;;;;;7379010;19;20290;-69
2022/01/11 09:08:43;;;;;;;7.32;3.97;;;;;;;;;;7379482;19;20066;-70
2022/01/11 09:11:09;;;;;;;8.48;4.75;;;;;;;;;;7379936;19;20536;-69
2022/01/11 09:13:36;;;;;;;8.02;3.90;;;;;;;;;;7379715;19;20024;-69
2022/01/11 09:16:03;;;;;;;9.00;4.82;;;;;;;;;;7383283;19;20366;-69
2022/01/11 09:18:28;;;;;;;8.38;4.60;;;;;;;;;;7377569;19;20014;-69
2022/01/11 09:20:53;;;;;;;6.63;4.00;;;;;;;;;;7380720;19;20006;-69
2022/01/11 09:23:19;;;;;;;8.85;4.53;;;;;;;;;;7377734;19;20018;-69
2022/01/11 09:25:45;;;;;;;9.40;4.35;;;;;;;;;;7377957;19;20014;-70
2022/01/11 09:28:11;;;;;;;8.45;4.38;;;;;;;;;;7378992;19;20040;-69
2022/01/11 09:30:37;;;;;;;8.88;4.70;;;;;;;;;;7379482;19;20047;-69
2022/01/11 09:33:02;;;;;;;8.27;4.70;;;;;;;;;;7379843;19;20018;-69
2022/01/11 09:35:28;;;;;;;7.80;4.38;;;;;;;;;;7380303;19;20069;-69
2022/01/11 09:37:53;;;;;;;8.63;5.03;;;;;;;;;;7379586;19;20011;-69
2022/01/11 09:40:18;;;;;;;8.45;4.93;;;;;;;;;;7379887;19;20007;-69
2022/01/11 09:42:44;;;;;;;8.20;4.68;;;;;;;;;;7383480;19;20031;-69
2022/01/11 09:45:11;;;;;;;10.35;5.60;;;;;;;;;;7380489;19;20006;-69
2022/01/11 09:47:38;;;;;;;9.35;5.13;;;;;;;;;;7377886;19;20035;-69
2022/01/11 09:50:06;;;;;;;10.48;5.60;;;;;;;;;;7378447;19;20120;-70
2022/01/11 09:52:32;;;;;;;9.23;4.55;;;;;;;;;;7373634;19;20006;-70
2022/01/11 09:54:57;;;;;;;9.32;5.63;;;;;;;;;;7378882;19;20018;-69
2022/01/11 09:57:23;;;;;;;9.80;5.35;;;;;;;;;;7372958;19;20011;-69
2022/01/11 09:59:49;;;;;;;8.35;4.90;;;;;;;;;;7371969;19;20015;-69
2022/01/11 10:02:14;;;;;;;9.85;5.32;;;;;;;;;;7380897;19;20476;-68
2022/01/11 10:04:40;;;;;;;10.10;5.40;;;;;;;;;;7380451;19;20015;-68
2022/01/11 10:07:09;;;;;;;9.15;5.25;;;;;;;;;;7377602;19;20002;-70
2022/01/11 10:09:48;;;;;;;9.13;5.35;;;;;;;;;;7375516;19;20014;-69
2022/01/11 10:12:16;;;;;;;8.20;4.82;;;;;;;;;;7379374;19;20469;-69
2022/01/11 10:14:56;;;;;;;10.15;5.40;;;;;;;;;;7379113;19;20039;-67
2022/01/11 10:17:27;;;;;;;9.85;5.10;;;;;;;;;;7379393;19;20010;-69
2022/01/11 10:20:15;;;;;;;9.30;5.22;;;;;;;;;;7378237;19;20010;-69
2022/01/11 10:22:53;;;;;;;7.80;4.80;;;;;;;;;;7380555;19;20014;-69
2022/01/11 10:25:19;;;;;;;7.35;4.47;;;;;;;;;;7379445;19;20014;-69
2022/01/11 10:28:03;;;;;;;8.73;4.38;;;;;;;;;;7376413;19;20030;-69
2022/01/11 10:30:29;;;;;;;8.65;4.63;;;;;;;;;;7379472;19;20468;-69
2022/01/11 10:32:58;;;;;;;9.25;4.97;;;;;;;;;;7381224;19;20017;-68
2022/01/11 10:35:25;;;;;;;7.32;4.53;;;;;;;;;;7379297;19;20422;-67
2022/01/11 10:37:53;;;;;;;6.90;4.43;;;;;;;;;;7379026;19;20022;-68
2022/01/11 10:40:35;;;;;;;6.63;4.45;;;;;;;;;;7377140;19;20023;-68
2022/01/11 10:43:04;;;;;;;7.95;4.40;;;;;;;;;;7379610;19;20361;-69
2022/01/11 10:45:35;;;;;;;8.93;5.25;;;;;;;;;;7378925;19;20036;-70
2022/01/11 10:48:05;;;;;;;7.47;4.45;;;;;;;;;;7377449;19;20017;-70
2022/01/11 10:50:34;;;;;;;7.82;4.90;;;;;;;;;;7376749;19;20009;-70
2022/01/11 10:53:02;;;;;;;9.45;4.80;;;;;;;;;;7376307;19;20034;-71
2022/01/11 10:55:30;;;;;;;7.55;4.63;;;;;;;;;;7375507;19;20006;-69
2022/01/11 10:58:02;;;;;;;6.65;4.15;;;;;;;;;;7376572;19;20110;-70
2022/01/11 11:00:36;;;;;;;6.50;4.07;;;;;;;;;;7374491;19;20394;-68
2022/01/11 11:03:14;;;;;;;6.25;4.45;;;;;;;;;;7374329;19;20065;-69
2022/01/11 11:05:46;;;;;;;10.63;4.88;;;;;;;;;;7374840;19;20143;-68
2022/01/11 11:08:12;;;;;;;6.68;4.32;;;;;;;;;;7374154;19;20065;-69
2022/01/11 11:10:42;;;;;;;8.90;4.60;;;;;;;;;;7368122;19;20038;-68
2022/01/11 11:13:10;;;;;;;9.20;5.00;;;;;;;;;;7378342;19;20007;-68
2022/01/11 11:15:39;;;;;;;7.88;4.45;;;;;;;;;;7375738;19;20011;-69
2022/01/11 11:18:19;;;;;;;7.78;4.80;;;;;;;;;;7377840;19;20002;-70
2022/01/11 11:20:45;;;;;;;8.82;4.82;;;;;;;;;;7373839;19;20723;-70
2022/01/11 11:23:12;;;;;;;7.43;4.75;;;;;;;;;;7378310;19;20850;-70
2022/01/11 11:25:38;;;;;;;5.47;3.85;;;;;;;;;;7378091;19;20010;-70
2022/01/11 11:28:03;;;;;;;8.20;4.20;;;;;;;;;;7374508;19;20494;-69
2022/01/11 11:30:28;;;;;;;8.63;4.55;;;;;;;;;;7374289;19;20014;-69
2022/01/11 11:32:54;;;;;;;6.18;4.20;;;;;;;;;;7379171;19;20010;-69
2022/01/11 11:35:19;;;;;;;6.88;4.40;;;;;;;;;;7378523;19;20139;-69
2022/01/11 11:37:47;;;;;;;5.93;3.20;;;;;;;;;;7377797;19;20087;-69
2022/01/11 11:40:18;;;;;;;5.38;3.50;;;;;;;;;;7373950;19;20021;-69
2022/01/11 11:42:45;;;;;;;5.28;3.22;;;;;;;;;;7377295;19;20005;-69
2022/01/11 11:45:19;;;;;;;5.30;3.00;;;;;;;;;;7377188;19;20221;-69
2022/01/11 11:47:45;;;;;;;4.70;3.10;;;;;;;;;;7372094;19;20017;-69
2022/01/11 11:50:22;;;;;;;5.68;3.03;;;;;;;;;;7373604;19;20279;-70
2022/01/11 11:52:50;;;;;;;5.53;3.20;;;;;;;;;;7375326;19;20531;-69
2022/01/11 11:55:23;;;;;;;6.18;3.30;;;;;;;;;;7375328;19;20391;-69
2022/01/11 11:57:55;;;;;;;7.28;3.30;;;;;;;;;;7374961;19;20043;-69
2022/01/11 12:00:28;;;;;;;6.70;3.42;;;;;;;;;;7375474;19;20014;-69
2022/01/11 12:02:55;;;;;;;7.60;3.97;;;;;;;;;;7376736;19;20007;-69
2022/01/11 12:05:46;;;;;;;5.95;3.78;;;;;;;;;;7383829;19;20015;-69
2022/01/11 12:08:33;;;;;;;4.32;3.10;;;;;;;;;;7381401;19;20022;-69
2022/01/11 12:11:02;;;;;;;6.65;3.72;;;;;;;;;;7380979;19;20025;-70
2022/01/11 12:13:50;;;;;;;5.60;3.38;;;;;;;;;;7379932;19;20479;-70
2022/01/11 12:16:25;;;;;;;9.10;3.80;;;;;;;;;;7377969;19;20006;-69
2022/01/11 12:18:52;;;;;;;5.25;3.38;;;;;;;;;;7375969;19;20018;-69
2022/01/11 12:21:17;;;;;;;5.32;3.13;;;;;;;;;;7379360;19;20409;-69
2022/01/11 12:23:48;;;;;;;4.95;3.00;;;;;;;;;;7383083;19;20044;-69
2022/01/11 12:26:20;;;;;;;6.03;3.50;;;;;;;;;;7382050;19;20479;-69
2022/01/11 12:29:07;;;;;;;4.80;3.17;;;;;;;;;;7380938;19;20115;-69
2022/01/11 12:31:35;;;;;;;4.38;2.53;;;;;;;;;;7377363;19;20378;-69
2022/01/11 12:34:01;;;;;;;3.60;2.47;;;;;;;;;;7380651;19;20038;-69
2022/01/11 12:36:48;;;;;;;2.92;1.85;;;;;;;;;;7382576;19;20021;-69
2022/01/11 12:39:14;;;;;;;4.30;2.85;;;;;;;;;;7381561;19;20038;-70
2022/01/11 12:41:39;;;;;;;4.63;2.20;;;;;;;;;;7383199;19;20097;-70
2022/01/11 12:44:28;;;;;;;3.75;2.13;;;;;;;;;;7384805;19;20318;-70
2022/01/11 12:46:55;;;;;;;2.42;1.75;;;;;;;;;;7379772;19;20472;-70
2022/01/11 12:49:23;;;;;;;3.17;2.00;;;;;;;;;;7379050;19;20848;-69
2022/01/11 12:51:53;;;;;;;3.70;1.85;;;;;;;;;;7382175;19;20017;-70
2022/01/11 12:54:23;;;;;;;3.40;2.20;;;;;;;;;;7382517;19;20484;-69
2022/01/11 12:56:52;;;;;;;2.88;1.98;;;;;;;;;;7382998;19;20006;-69
2022/01/11 12:59:19;;;;;;;3.95;2.05;;;;;;;;;;7379227;19;20514;-69
2022/01/11 13:01:45;;;;;;;2.80;2.00;;;;;;;;;;7380566;19;20014;-69
2022/01/11 13:04:11;;;;;;;2.63;2.10;;;;;;;;;;7384035;19;20036;-70
2022/01/11 13:06:38;;;;;;;3.47;2.47;;;;;;;;;;7381154;19;20018;-69
2022/01/11 13:09:10;;;;;;;5.18;2.67;;;;;;;;;;7381376;19;20014;-70
2022/01/11 13:11:37;;;;;;;5.78;3.22;;;;;;;;;;7378739;19;20006;-71
2022/01/11 13:14:17;;;;;;;6.00;2.58;;;;;;;;;;7381082;19;20034;-68
2022/01/11 13:16:49;;;;;;;3.30;2.35;;;;;;;;;;7377854;19;19998;-70
2022/01/11 13:19:15;;;;;;;3.05;2.53;;;;;;;;;;7380260;19;20018;-69
2022/01/11 13:21:41;;;;;;;4.35;2.72;;;;;;;;;;7381647;19;20007;-69
2022/01/11 13:24:34;;;;;;;5.15;2.90;;;;;;;;;;7378106;19;20018;-69
2022/01/11 13:26:57;;;;;;;3.60;2.47;;;;;;;;;;7380098;19;20034;-69
2022/01/11 13:29:22;;;;;;;3.83;2.22;;;;;;;;;;7375190;19;20019;-69
2022/01/11 13:31:54;;;;;;;2.92;1.98;;;;;;;;;;7374395;19;20023;-69
2022/01/11 13:34:22;;;;;;;2.97;2.00;;;;;;;;;;7380563;19;20014;-69
2022/01/11 13:36:52;;;;;;;3.60;2.00;;;;;;;;;;7378969;19;20015;-69
2022/01/11 13:39:24;;;;;;;2.33;1.88;;;;;;;;;;7380140;19;20010;-68
2022/01/11 13:41:55;;;;;;;2.45;1.70;;;;;;;;;;7381250;19;20034;-69
2022/01/11 13:44:27;;;;;;;3.65;2.00;;;;;;;;;;7378906;19;20405;-69
2022/01/11 13:46:58;;;;;;;2.30;1.58;;;;;;;;;;7376862;19;20022;-69
2022/01/11 13:49:33;;;;;;;2.95;1.90;;;;;;;;;;7380170;19;20027;-69
2022/01/11 13:52:02;;;;;;;3.45;2.00;;;;;;;;;;7381341;19;20034;-69
2022/01/11 13:54:33;;;;;;;3.85;1.80;;;;;;;;;;7380324;19;20028;-69
2022/01/11 13:56:59;;;;;;;3.67;1.83;;;;;;;;;;7383049;19;20007;-69
2022/01/11 13:59:27;;;;;;;3.90;1.70;;;;;;;;;;7378674;19;20014;-69
2022/01/11 14:02:07;;;;;;;3.03;1.90;;;;;;;;;;7381787;19;20037;-69
2022/01/11 14:05:06;;;;;;;10.77;2.08;;;;;;;;;;7381910;19;20638;-69
2022/01/11 14:07:33;;;;;;;3.30;2.28;;;;;;;;;;7378581;19;20007;-69
2022/01/11 14:10:08;;;;;;;3.45;2.38;;;;;;;;;;7379532;19;20018;-69
2022/01/11 14:12:39;;;;;;;4.65;1.75;;;;;;;;;;7381226;19;20770;-68
2022/01/11 14:15:06;;;;;;;3.17;2.25;;;;;;;;;;7381453;19;20431;-69
2022/01/11 14:17:35;;;;;;;5.05;2.55;;;;;;;;;;7380275;19;20048;-69
2022/01/11 14:20:05;;;;;;;3.05;2.20;;;;;;;;;;7379269;19;20010;-69
2022/01/11 14:22:39;;;;;;;4.50;2.40;;;;;;;;;;7379804;19;20010;-69
2022/01/11 14:25:07;;;;;;;2.20;1.88;;;;;;;;;;7374919;19;20017;-69
2022/01/11 14:27:33;;;;;;;4.32;1.85;;;;;;;;;;7373676;19;20010;-69
2022/01/11 14:30:12;;;;;;;5.15;2.92;;;;;;;;;;7375841;19;20039;-69
2022/01/11 14:32:52;;;;;;;3.70;2.22;;;;;;;;;;7378525;19;20086;-69
2022/01/11 14:35:24;;;;;;;8.05;2.30;;;;;;;;;;7379238;19;20374;-69
2022/01/11 14:38:12;;;;;;;3.90;2.47;;;;;;;;;;7378109;19;20464;-68
2022/01/11 14:40:41;;;;;;;3.10;2.05;;;;;;;;;;7367681;19;20018;-69
2022/01/11 14:43:09;;;;;;;2.83;2.10;;;;;;;;;;7374832;19;20012;-69
2022/01/11 14:45:48;;;;;;;3.00;2.33;;;;;;;;;;7376860;19;20010;-69